| time (UTC) | temp F | wind direction | speed MPH | gust MPH | rain 1hr in | rain 24hr in | rain mn in | humidity % | barometer mb |
| 20260906051554 | 71 | 192 | 0.0 | 0.0 | 0.00 | 0.00 | 0.00 | 94 | 796.1 |
| 20260906050047 | 72 | 191 | 0.0 | 0.0 | 0.00 | 0.00 | 0.00 | 94 | 796.1 |
| 20260906044542 | 72 | 192 | 0.0 | 0.0 | 0.00 | 0.00 | 0.00 | 94 | 796.1 |
| 20260906043030 | 72 | 192 | 0.0 | 0.0 | 0.00 | 0.00 | 0.00 | 94 | 796.1 |
| 20260906041543 | 72 | 192 | 0.0 | 0.0 | 0.00 | 0.00 | 0.00 | 94 | 796.1 |
| 20260906040023 | 72 | 192 | 0.0 | 0.0 | 0.00 | 0.00 | 0.00 | 94 | 796.1 |
| 20260906034523 | 72 | 192 | 0.0 | 0.0 | 0.00 | 0.00 | 0.00 | 94 | 796.1 |
| 20260906033023 | 72 | 191 | 0.0 | 0.0 | 0.00 | 0.00 | 0.00 | 94 | 796.1 |
| 20260906031524 | 72 | 191 | 0.0 | 0.0 | 0.00 | 0.00 | 0.00 | 94 | 796.1 |
| 20260906030020 | 72 | 192 | 0.0 | 0.0 | 0.00 | 0.00 | 0.00 | 93 | 796.1 |
| 20260906024521 | 73 | 191 | 0.0 | 0.0 | 0.00 | 0.00 | 0.00 | 94 | 796.1 |
| 20260906023021 | 72 | 192 | 0.0 | 0.0 | 0.00 | 0.00 | 0.00 | 94 | 796.1 |
| 20260906021525 | 72 | 191 | 0.0 | 0.0 | 0.00 | 0.00 | 0.00 | 93 | 796.1 |
| 20260906020013 | 73 | 191 | 0.0 | 0.0 | 0.00 | 0.00 | 0.00 | 93 | 796.1 |
| 20260906014528 | 73 | 191 | 0.0 | 0.0 | 0.00 | 0.00 | 0.00 | 93 | 796.1 |
| 20260906013014 | 74 | 191 | 0.0 | 0.0 | 0.00 | 0.00 | 0.00 | 92 | 796.1 |
| 20260906011514 | 74 | 191 | 0.0 | 0.0 | 0.00 | 0.00 | 0.00 | 92 | 796.1 |
| 20260906010033 | 75 | 192 | 0.0 | 0.0 | 0.00 | 0.00 | 0.00 | 92 | 796.1 |
| 20260906004514 | 75 | 191 | 0.0 | 0.0 | 0.00 | 0.00 | 0.00 | 91 | 796.1 |
| 20260906003005 | 76 | 192 | 0.0 | 0.0 | 0.00 | 0.00 | 0.00 | 90 | 796.1 |
| 20260906001606 | 76 | 192 | 0.0 | 0.0 | 0.00 | 0.00 | 0.00 | 90 | 796.1 |
| 20260906000055 | 78 | 192 | 0.0 | 0.0 | 0.00 | 0.00 | 0.00 | 87 | 796.1 |
| 20260905234541 | 80 | 192 | 0.0 | 0.0 | 0.00 | 0.00 | 0.00 | 84 | 796.1 |
| 20260905233039 | 81 | 192 | 0.0 | 0.0 | 0.00 | 0.00 | 0.00 | 81 | 796.1 |
| 20260905231539 | 82 | 192 | 0.0 | 0.0 | 0.00 | 0.00 | 0.00 | 79 | 796.1 |
| 20260905230024 | 83 | 192 | 0.0 | 0.0 | 0.00 | 0.00 | 0.00 | 78 | 796.1 |
| 20260905224537 | 84 | 190 | 0.0 | 0.0 | 0.00 | 0.00 | 0.00 | 75 | 796.1 |
| 20260905181532 | 77 | 194 | 0.0 | 0.0 | 0.00 | 0.00 | 0.00 | 90 | 796.1 |
| 20260905180016 | 77 | 194 | 3.0 | 5.0 | 0.00 | 0.00 | 0.00 | 90 | 796.1 |
| 20260905174503 | 79 | 192 | 2.0 | 11.0 | 0.00 | 0.00 | 0.00 | 85 | 796.1 |
| 20260905173108 | 87 | 188 | 11.0 | 21.0 | 0.00 | 0.00 | 0.00 | 68 | 1066.2 |
| 20260905171550 | 92 | 236 | 2.0 | 11.0 | 0.00 | 0.00 | 0.00 | 64 | 1066.2 |
| 20260905170047 | 92 | 182 | 4.0 | 10.0 | 0.00 | 0.00 | 0.00 | 65 | 1066.2 |
| 20260905164526 | 92 | 186 | 0.0 | 8.0 | 0.00 | 0.00 | 0.00 | 69 | 1066.2 |
| 20260905163014 | 93 | 189 | 3.0 | 7.0 | 0.00 | 0.00 | 0.00 | 63 | 1066.2 |
| 20260905161506 | 92 | 192 | 0.0 | 6.0 | 0.00 | 0.00 | 0.00 | 65 | 1066.2 |
| 20260905160002 | 92 | 194 | 0.0 | 1.0 | 0.00 | 0.00 | 0.00 | 68 | 1066.2 |
| 20260905154603 | 91 | 198 | 0.0 | 1.0 | 0.00 | 0.00 | 0.00 | 66 | 1066.2 |
| 20260905153045 | 90 | 198 | 0.0 | 4.0 | 0.00 | 0.00 | 0.00 | 73 | 1066.2 |
| 20260905151549 | 90 | 198 | 0.0 | 0.0 | 0.00 | 0.00 | 0.00 | 73 | 1066.2 |
| 20260905150035 | 88 | 198 | 0.0 | 0.0 | 0.00 | 0.00 | 0.00 | 78 | 1066.2 |
| 20260905144530 | 88 | 198 | 0.0 | 0.0 | 0.00 | 0.00 | 0.00 | 79 | 1066.2 |
| 20260905143111 | 86 | 198 | 0.0 | 0.0 | 0.00 | 0.00 | 0.00 | 83 | 1066.2 |
| 20260905141555 | 84 | 198 | 0.0 | 0.0 | 0.00 | 0.00 | 0.00 | 84 | 1066.2 |
| 20260905140046 | 82 | 198 | 0.0 | 4.0 | 0.00 | 0.00 | 0.00 | 86 | 1066.2 |
| 20260905134525 | 81 | 198 | 0.0 | 1.0 | 0.00 | 0.00 | 0.00 | 87 | 1066.2 |
| 20260905133108 | 80 | 198 | 0.0 | 0.0 | 0.00 | 0.00 | 0.00 | 89 | 1066.2 |
| 20260905131625 | 79 | 198 | 0.0 | 6.0 | 0.00 | 0.00 | 0.00 | 90 | 1066.2 |
| 20260905130051 | 77 | 195 | 2.0 | 7.0 | 0.00 | 0.00 | 0.00 | 91 | 1066.2 |
| 20260905124536 | 76 | 192 | 2.0 | 6.0 | 0.00 | 0.00 | 0.00 | 93 | 1066.2 |
| 20260905123036 | 75 | 192 | 0.0 | 4.0 | 0.00 | 0.00 | 0.00 | 96 | 1066.2 |
| 20260905121527 | 73 | 192 | 0.0 | 0.0 | 0.00 | 0.00 | 0.00 | 96 | 1066.2 |
| 20260905120033 | 72 | 192 | 0.0 | 0.0 | 0.00 | 0.00 | 0.00 | 96 | 1066.2 |
| 20260905114521 | 71 | 192 | 0.0 | 0.0 | 0.00 | 0.00 | 0.00 | 95 | 1066.2 |
| 20260905113025 | 71 | 192 | 0.0 | 0.0 | 0.00 | 0.00 | 0.00 | 95 | 1066.2 |
| 20260905111520 | 71 | 192 | 0.0 | 0.0 | 0.00 | 0.00 | 0.00 | 95 | 1066.2 |
| 20260905110024 | 71 | 192 | 0.0 | 0.0 | 0.00 | 0.00 | 0.00 | 95 | 1066.2 |
| 20260905104524 | 71 | 192 | 0.0 | 0.0 | 0.00 | 0.00 | 0.00 | 95 | 1066.2 |
| 20260905103027 | 72 | 192 | 0.0 | 0.0 | 0.00 | 0.00 | 0.00 | 95 | 1066.2 |
| 20260905101624 | 72 | 192 | 0.0 | 0.0 | 0.00 | 0.00 | 0.00 | 95 | 1066.2 |
| 20260905100055 | 72 | 192 | 0.0 | 0.0 | 0.00 | 0.00 | 0.00 | 95 | 1066.2 |
| 20260905094550 | 72 | 192 | 0.0 | 0.0 | 0.00 | 0.00 | 0.00 | 95 | 1066.2 |
| 20260905093008 | 72 | 192 | 0.0 | 0.0 | 0.00 | 0.00 | 0.00 | 95 | 1066.2 |
| 20260905091540 | 72 | 192 | 0.0 | 0.0 | 0.00 | 0.00 | 0.00 | 95 | 1066.2 |
| 20260905090019 | 72 | 192 | 0.0 | 0.0 | 0.00 | 0.00 | 0.00 | 95 | 1066.2 |
| 20260905084518 | 72 | 192 | 0.0 | 0.0 | 0.00 | 0.00 | 0.00 | 95 | 1066.2 |
| 20260905083007 | 72 | 192 | 0.0 | 0.0 | 0.00 | 0.00 | 0.00 | 95 | 1066.2 |
| 20260905081556 | 72 | 192 | 0.0 | 0.0 | 0.00 | 0.00 | 0.00 | 95 | 1066.2 |
| 20260905080042 | 72 | 192 | 0.0 | 0.0 | 0.00 | 0.00 | 0.00 | 94 | 1066.2 |
| 20260905074539 | 72 | 192 | 0.0 | 0.0 | 0.00 | 0.00 | 0.00 | 94 | 1066.2 |
| 20260905073031 | 72 | 192 | 0.0 | 0.0 | 0.00 | 0.00 | 0.00 | 94 | 1066.2 |
| 20260905071510 | 72 | 192 | 0.0 | 0.0 | 0.00 | 0.00 | 0.00 | 94 | 1066.2 |
| 20260905070007 | 73 | 192 | 0.0 | 0.0 | 0.00 | 0.00 | 0.00 | 94 | 1066.2 |
| 20260905064605 | 73 | 192 | 0.0 | 0.0 | 0.00 | 0.00 | 0.00 | 94 | 1066.2 |
| 20260905063054 | 73 | 192 | 0.0 | 0.0 | 0.00 | 0.00 | 0.00 | 94 | 1066.2 |
| 20260905061541 | 73 | 192 | 0.0 | 0.0 | 0.00 | 0.00 | 0.00 | 94 | 1066.2 |
| 20260905060029 | 73 | 192 | 0.0 | 0.0 | 0.00 | 0.00 | 0.00 | 94 | 1066.2 |
| 20260905054526 | 74 | 192 | 0.0 | 0.0 | 0.00 | 0.00 | 0.00 | 93 | 1066.2 |
| 20260905053018 | 74 | 192 | 0.0 | 0.0 | 0.00 | 0.00 | 0.00 | 93 | 1066.2 |